createdAt,value
2018-06-11T00:01:53.862Z,92.42
2018-06-11T00:04:22.031Z,92.02
2018-06-11T00:06:50.173Z,91.87
2018-06-11T00:09:18.343Z,92.61
2018-06-11T00:11:46.499Z,92.64
2018-06-11T00:14:14.662Z,92.45
2018-06-11T00:16:43.173Z,91.78
2018-06-11T00:19:11.338Z,92.38
2018-06-11T00:21:39.487Z,92.83
2018-06-11T00:24:07.650Z,93.69
2018-06-11T00:26:35.796Z,92.93
2018-06-11T00:29:03.942Z,92.65
2018-06-11T00:31:32.103Z,92.85
2018-06-11T00:34:00.330Z,93.43
2018-06-11T00:36:28.493Z,93.00
2018-06-11T00:38:56.626Z,93.46
2018-06-11T00:41:24.774Z,93.29
2018-06-11T00:43:52.930Z,93.67
2018-06-11T00:46:21.098Z,93.80
2018-06-11T00:48:49.264Z,93.43
2018-06-11T00:51:17.424Z,92.87
2018-06-11T00:53:45.566Z,93.38
2018-06-11T00:56:13.723Z,92.87
2018-06-11T00:58:41.867Z,92.54
2018-06-11T01:01:10.028Z,92.23
2018-06-11T01:03:38.181Z,92.40
2018-06-11T01:06:06.659Z,92.05
2018-06-11T01:08:34.814Z,91.87
2018-06-11T01:11:02.962Z,93.09
2018-06-11T01:13:31.119Z,92.00
2018-06-11T01:15:59.299Z,92.16
2018-06-11T01:18:27.448Z,92.20
2018-06-11T01:20:55.602Z,91.93
2018-06-11T01:23:23.767Z,92.75
2018-06-11T01:25:51.919Z,92.23
2018-06-11T01:28:20.059Z,92.50
2018-06-11T01:30:48.217Z,91.55
2018-06-11T01:33:16.459Z,92.17
2018-06-11T01:35:44.627Z,93.40
2018-06-11T01:38:12.794Z,93.80
2018-06-11T01:40:40.942Z,93.78
2018-06-11T01:43:09.106Z,94.74
2018-06-11T01:45:37.330Z,94.29
2018-06-11T01:48:05.546Z,94.65
2018-06-11T01:50:33.714Z,95.02
2018-06-11T01:53:01.862Z,95.53
2018-06-11T01:55:30.007Z,96.14
2018-06-11T01:57:58.162Z,96.47
2018-06-11T02:00:26.322Z,96.24
2018-06-11T02:02:54.486Z,96.18
2018-06-11T02:05:22.638Z,95.84
2018-06-11T02:07:50.798Z,95.32
2018-06-11T02:10:18.959Z,95.85
2018-06-11T02:12:47.118Z,96.44
2018-06-11T02:15:15.298Z,96.05
2018-06-11T02:17:43.450Z,96.56
2018-06-11T02:20:11.614Z,96.57
2018-06-11T02:22:39.766Z,96.28
2018-06-11T02:25:07.984Z,96.86
2018-06-11T02:27:36.142Z,97.35
2018-06-11T02:30:04.640Z,97.73
2018-06-11T02:32:32.800Z,99.10
2018-06-11T02:35:00.983Z,99.99
2018-06-11T02:37:29.193Z,99.72
2018-06-11T02:39:57.353Z,100.00
2018-06-11T02:42:25.522Z,100.00
2018-06-11T02:44:53.698Z,100.00
2018-06-11T02:47:21.862Z,100.00
2018-06-11T02:49:50.043Z,100.00
2018-06-11T02:52:18.206Z,100.00
2018-06-11T02:54:46.379Z,100.00
2018-06-11T02:57:14.543Z,100.00
2018-06-11T02:59:42.726Z,100.00
2018-06-11T03:02:10.898Z,100.00
2018-06-11T03:04:39.055Z,100.00
2018-06-11T03:07:07.226Z,100.00
2018-06-11T03:09:35.382Z,100.00
2018-06-11T03:12:03.546Z,100.00
2018-06-11T03:14:31.714Z,100.00
2018-06-11T03:16:59.895Z,100.00
2018-06-11T03:19:28.077Z,100.00
2018-06-11T03:21:56.292Z,100.00
2018-06-11T03:24:24.443Z,100.00
2018-06-11T03:26:52.611Z,100.00
2018-06-11T03:29:20.783Z,100.00
2018-06-11T03:31:48.951Z,100.00
2018-06-11T03:34:17.119Z,100.00
2018-06-11T03:36:45.298Z,100.00
2018-06-11T03:39:13.466Z,99.94
2018-06-11T03:41:41.648Z,100.00
2018-06-11T03:44:09.806Z,99.54
2018-06-11T03:46:37.999Z,100.00
2018-06-11T03:49:06.168Z,100.00
2018-06-11T03:51:34.331Z,100.00
2018-06-11T03:54:02.506Z,100.00
2018-06-11T03:56:37.232Z,100.00
2018-06-11T03:59:05.434Z,100.00
2018-06-11T04:01:33.600Z,100.00
2018-06-11T04:04:01.801Z,100.00
2018-06-11T04:06:29.967Z,100.00
2018-06-11T04:08:58.138Z,100.00
2018-06-11T04:11:26.386Z,100.00
2018-06-11T04:13:54.547Z,100.00
2018-06-11T04:16:22.718Z,100.00
2018-06-11T04:18:50.926Z,100.00
2018-06-11T04:21:19.179Z,100.00
2018-06-11T04:23:47.361Z,100.00
2018-06-11T04:26:15.533Z,100.00
2018-06-11T04:28:43.702Z,100.00
2018-06-11T04:31:11.866Z,100.00
2018-06-11T04:33:40.027Z,100.00
2018-06-11T04:36:08.180Z,99.14
2018-06-11T04:38:36.338Z,100.00
2018-06-11T04:41:04.515Z,98.75
2018-06-11T04:43:32.718Z,98.28
2018-06-11T04:46:00.871Z,98.34
2018-06-11T04:48:29.055Z,96.68
2018-06-11T04:50:57.218Z,97.31
2018-06-11T04:53:25.382Z,95.55
2018-06-11T04:55:53.530Z,96.76
2018-06-11T04:58:21.678Z,96.66
2018-06-11T05:00:49.875Z,97.78
2018-06-11T05:03:18.026Z,97.25
2018-06-11T05:05:46.195Z,96.13
2018-06-11T05:08:14.360Z,95.79
2018-06-11T05:10:42.510Z,96.36
2018-06-11T05:13:10.686Z,96.37
2018-06-11T05:15:38.867Z,95.71
2018-06-11T05:18:07.042Z,95.20
2018-06-11T05:20:35.288Z,95.18
2018-06-11T05:23:03.447Z,95.61
2018-06-11T05:25:31.622Z,94.88
2018-06-11T05:27:59.792Z,94.49
2018-06-11T05:30:27.939Z,94.04
2018-06-11T05:32:56.118Z,94.54
2018-06-11T05:35:24.271Z,93.46
2018-06-11T05:37:52.503Z,93.50
2018-06-11T05:40:20.703Z,93.66
2018-06-11T05:42:51.070Z,93.99
2018-06-11T05:45:19.230Z,95.50
2018-06-11T05:47:47.379Z,94.71
2018-06-11T05:50:15.539Z,93.44
2018-06-11T05:52:43.724Z,93.49
2018-06-11T05:55:11.910Z,94.08
2018-06-11T05:57:40.069Z,93.72
2018-06-11T06:00:08.229Z,92.87
2018-06-11T06:02:36.376Z,92.32
2018-06-11T06:05:04.563Z,93.00
2018-06-11T06:07:32.718Z,92.32
2018-06-11T06:10:00.878Z,92.14
2018-06-11T06:12:29.036Z,92.24
2018-06-11T06:14:57.190Z,92.43
2018-06-11T06:17:25.362Z,91.87
2018-06-11T06:19:53.591Z,91.88
2018-06-11T06:22:21.755Z,92.23
2018-06-11T06:24:49.910Z,92.18
2018-06-11T06:27:18.063Z,92.12
2018-06-11T06:29:46.218Z,91.67
2018-06-11T06:32:14.367Z,91.91
2018-06-11T06:34:42.556Z,90.00
2018-06-11T06:37:10.687Z,91.44
2018-06-11T06:39:38.909Z,91.95
2018-06-11T06:42:07.034Z,91.86
2018-06-11T06:44:35.183Z,91.07
2018-06-11T06:47:03.334Z,90.52
2018-06-11T06:49:31.487Z,88.67
2018-06-11T06:51:59.634Z,89.95
2018-06-11T06:54:27.786Z,89.73
2018-06-11T06:56:55.935Z,89.70
2018-06-11T06:59:24.090Z,89.54
2018-06-11T07:01:52.246Z,88.24
2018-06-11T07:04:20.410Z,87.98
2018-06-11T07:06:48.578Z,87.46
2018-06-11T07:09:16.738Z,87.64
2018-06-11T07:11:44.898Z,86.97
2018-06-11T07:14:13.074Z,86.77
2018-06-11T07:16:41.234Z,86.55
2018-06-11T07:19:09.395Z,86.71
2018-06-11T07:21:37.558Z,86.35
2018-06-11T07:24:05.727Z,86.03
2018-06-11T07:26:33.883Z,86.33
2018-06-11T07:29:02.038Z,85.83
2018-06-11T07:31:30.223Z,84.63
2018-06-11T07:33:58.369Z,84.54
2018-06-11T07:36:26.527Z,84.58
2018-06-11T07:38:54.679Z,83.37
2018-06-11T07:41:22.850Z,82.01
2018-06-11T07:43:50.991Z,83.06
2018-06-11T07:46:19.158Z,82.46
2018-06-11T07:48:47.315Z,82.39
2018-06-11T07:51:15.485Z,82.31
2018-06-11T07:53:43.631Z,82.69
2018-06-11T07:56:12.083Z,82.88
2018-06-11T07:58:40.243Z,80.37
2018-06-11T08:01:08.410Z,80.07
2018-06-11T08:03:36.567Z,79.36
2018-06-11T08:06:04.762Z,79.30
2018-06-11T08:08:32.922Z,79.48
2018-06-11T08:11:01.090Z,79.50
2018-06-11T08:13:29.305Z,80.04
2018-06-11T08:15:57.442Z,78.58
2018-06-11T08:18:25.604Z,77.26
2018-06-11T08:20:53.784Z,76.56
2018-06-11T08:23:21.934Z,76.51
2018-06-11T08:25:50.095Z,78.17
2018-06-11T08:28:18.258Z,79.23
2018-06-11T08:30:46.435Z,78.42
2018-06-11T08:33:14.602Z,76.46
2018-06-11T08:35:42.770Z,77.06
2018-06-11T08:38:10.943Z,75.66
2018-06-11T08:40:39.119Z,77.37
2018-06-11T08:43:07.292Z,76.41
2018-06-11T08:45:35.450Z,76.35
2018-06-11T08:48:03.642Z,76.52
2018-06-11T08:50:31.809Z,76.46
2018-06-11T08:52:59.994Z,77.35
2018-06-11T08:55:28.159Z,77.16
2018-06-11T08:57:56.307Z,76.81
2018-06-11T09:00:24.458Z,75.82
2018-06-11T09:02:52.621Z,75.43
2018-06-11T09:05:20.779Z,75.61
2018-06-11T09:07:48.941Z,76.19
2018-06-11T09:10:17.119Z,76.65
2018-06-11T09:12:45.267Z,74.82
2018-06-11T09:15:13.437Z,75.43
2018-06-11T09:17:41.614Z,75.13
2018-06-11T09:20:09.786Z,73.13
2018-06-11T09:22:37.955Z,74.58
2018-06-11T09:25:06.312Z,72.34
2018-06-11T09:27:34.491Z,71.49
2018-06-11T09:30:02.670Z,72.26
2018-06-11T09:34:58.031Z,73.07
2018-06-11T09:37:26.210Z,72.48
2018-06-11T09:39:54.367Z,71.13
2018-06-11T09:42:22.538Z,72.18
2018-06-11T09:44:50.755Z,71.97
2018-06-11T09:47:18.923Z,72.46
2018-06-11T09:49:47.078Z,71.80
2018-06-11T09:52:15.247Z,73.33
2018-06-11T09:59:37.894Z,73.31
2018-06-11T10:02:06.058Z,71.62
2018-06-11T10:04:34.231Z,69.93
2018-06-11T10:07:02.407Z,68.83
2018-06-11T10:09:30.582Z,66.94
2018-06-11T10:11:58.743Z,65.43
2018-06-11T10:14:26.930Z,64.56
2018-06-11T10:16:55.082Z,61.56
2018-06-11T10:19:23.272Z,64.70
2018-06-11T10:21:51.447Z,65.11
2018-06-11T10:24:19.620Z,64.37
2018-06-11T10:26:47.782Z,61.47
2018-06-11T10:29:16.066Z,61.75
2018-06-11T10:31:44.226Z,60.00
2018-06-11T10:34:12.401Z,58.80
2018-06-11T10:36:40.550Z,56.98
2018-06-11T10:39:08.788Z,60.11
2018-06-11T10:41:36.906Z,57.28
2018-06-11T10:44:05.068Z,57.21
2018-06-11T10:46:33.247Z,57.37
2018-06-11T10:49:01.407Z,56.20
2018-06-11T10:51:29.580Z,54.85
2018-06-11T10:53:57.735Z,55.77
2018-06-11T10:56:25.914Z,56.04
2018-06-11T10:58:54.065Z,54.94
2018-06-11T11:01:22.219Z,54.10
2018-06-11T11:03:50.382Z,54.54
2018-06-11T11:06:18.538Z,54.60
2018-06-11T11:08:46.710Z,56.23
2018-06-11T11:11:14.850Z,53.83
2018-06-11T11:13:43.009Z,53.71
2018-06-11T11:16:11.170Z,52.71
2018-06-11T11:18:39.322Z,52.77
2018-06-11T11:21:07.552Z,54.18
2018-06-11T11:23:35.692Z,54.28
2018-06-11T11:26:03.980Z,53.50
2018-06-11T11:28:32.150Z,53.45
2018-06-11T11:31:00.306Z,55.29
2018-06-11T11:33:28.454Z,54.20
2018-06-11T11:35:56.630Z,54.19
2018-06-11T11:38:24.781Z,53.71
2018-06-11T11:40:52.934Z,50.47
2018-06-11T11:43:21.088Z,53.52
2018-06-11T11:45:49.250Z,54.01
2018-06-11T11:48:17.411Z,51.83
2018-06-11T11:50:45.571Z,52.47
2018-06-11T11:53:13.751Z,50.67
2018-06-11T11:55:41.914Z,53.38
2018-06-11T11:58:10.075Z,52.08
2018-06-11T12:00:38.242Z,50.02
2018-06-11T12:03:06.398Z,52.68
2018-06-11T12:05:34.562Z,52.28
2018-06-11T12:08:02.718Z,50.75
2018-06-11T12:10:30.883Z,50.76
2018-06-11T12:12:59.047Z,48.85
2018-06-11T12:15:27.202Z,50.73
2018-06-11T12:17:55.361Z,53.10
2018-06-11T12:20:23.518Z,50.03
2018-06-11T12:22:51.673Z,48.76
2018-06-11T12:25:19.846Z,48.57
2018-06-11T12:27:48.007Z,49.80
2018-06-11T12:30:16.218Z,49.84
2018-06-11T12:32:44.384Z,51.33
2018-06-11T12:35:12.544Z,49.61
2018-06-11T12:37:40.703Z,47.36
2018-06-11T12:40:08.891Z,49.88
2018-06-11T12:42:37.070Z,46.91
2018-06-11T12:45:05.331Z,46.75
2018-06-11T12:47:33.530Z,46.24
2018-06-11T12:50:01.642Z,47.53
2018-06-11T12:52:29.798Z,48.25
2018-06-11T12:54:57.959Z,48.12
2018-06-11T12:57:26.115Z,49.17
2018-06-11T12:59:54.270Z,48.03
2018-06-11T13:02:22.440Z,48.49
2018-06-11T13:04:50.605Z,49.89
2018-06-11T13:07:18.778Z,47.50
2018-06-11T13:09:46.938Z,46.88
2018-06-11T13:12:15.106Z,47.88
2018-06-11T13:14:43.294Z,46.57
2018-06-11T13:17:11.450Z,46.19
2018-06-11T13:19:39.622Z,46.21
2018-06-11T13:22:07.803Z,45.45
2018-06-11T13:24:35.938Z,46.18
2018-06-11T13:27:04.107Z,46.79
2018-06-11T13:29:32.275Z,48.44
2018-06-11T13:32:00.438Z,46.40
2018-06-11T13:34:28.597Z,46.55
2018-06-11T13:36:56.764Z,46.83
2018-06-11T13:39:24.935Z,47.88
2018-06-11T13:41:53.102Z,48.94
2018-06-11T13:44:21.255Z,46.98
2018-06-11T13:46:49.406Z,47.65
2018-06-11T13:49:17.574Z,46.03
2018-06-11T13:51:45.739Z,48.01
2018-06-11T13:54:13.896Z,49.20
2018-06-11T13:56:42.038Z,50.30
2018-06-11T13:59:10.211Z,47.04
2018-06-11T14:01:38.373Z,48.72
2018-06-11T14:04:06.538Z,50.75
2018-06-11T14:06:34.700Z,51.84
2018-06-11T14:09:02.874Z,50.98
2018-06-11T14:11:31.063Z,52.17
2018-06-11T14:13:59.198Z,51.17
2018-06-11T14:16:27.362Z,52.21
2018-06-11T14:18:56.660Z,53.32
2018-06-11T14:21:24.832Z,53.97
2018-06-11T14:23:53.000Z,52.53
2018-06-11T14:26:21.419Z,53.84
2018-06-11T14:28:50.070Z,53.69
2018-06-11T14:31:18.286Z,53.63
2018-06-11T14:33:46.470Z,52.79
2018-06-11T14:36:14.639Z,53.08
2018-06-11T14:38:42.850Z,54.23
2018-06-11T14:41:11.105Z,55.23
2018-06-11T14:43:39.274Z,55.96
2018-06-11T14:46:07.612Z,54.73
2018-06-11T14:48:35.770Z,54.54
2018-06-11T14:51:03.929Z,56.12
2018-06-11T14:53:32.092Z,55.84
2018-06-11T14:56:00.253Z,55.65
2018-06-11T14:58:28.422Z,55.00
2018-06-11T15:00:56.583Z,53.92
2018-06-11T15:03:24.746Z,54.61
2018-06-11T15:05:52.919Z,53.91
2018-06-11T15:08:21.175Z,54.64
2018-06-11T15:10:49.335Z,54.23
2018-06-11T15:13:17.514Z,53.72
2018-06-11T15:15:45.692Z,53.42
2018-06-11T15:18:13.834Z,54.93
2018-06-11T15:20:42.027Z,55.79
2018-06-11T15:23:10.197Z,56.58
2018-06-11T15:25:38.366Z,53.53
2018-06-11T15:28:06.542Z,55.35
2018-06-11T15:30:34.700Z,54.86
2018-06-11T15:33:02.863Z,54.16
2018-06-11T15:35:31.026Z,53.99
2018-06-11T15:37:59.183Z,53.75
2018-06-11T15:40:27.367Z,53.41
2018-06-11T15:42:55.522Z,52.65
2018-06-11T15:45:23.683Z,54.73
2018-06-11T15:47:51.838Z,54.20
2018-06-11T15:50:19.995Z,52.97
2018-06-11T15:52:48.154Z,53.56
2018-06-11T15:55:16.314Z,54.03
2018-06-11T15:57:44.475Z,52.72
2018-06-11T16:00:12.631Z,53.48
2018-06-11T16:02:40.795Z,53.42
2018-06-11T16:05:08.975Z,53.54
2018-06-11T16:07:37.144Z,54.45
2018-06-11T16:10:05.348Z,53.17
2018-06-11T16:12:33.507Z,52.16
2018-06-11T16:15:01.677Z,52.04
2018-06-11T16:17:29.843Z,52.36
2018-06-11T16:19:58.027Z,52.61
2018-06-11T16:22:26.198Z,53.09
2018-06-11T16:24:54.350Z,53.29
2018-06-11T16:27:22.522Z,53.59
2018-06-11T16:29:50.726Z,53.82
2018-06-11T16:32:18.890Z,54.00
2018-06-11T16:34:47.046Z,53.79
2018-06-11T16:37:15.230Z,53.28
2018-06-11T16:39:43.390Z,53.83
2018-06-11T16:42:11.562Z,54.76
2018-06-11T16:44:39.730Z,54.21
2018-06-11T16:47:07.902Z,54.34
2018-06-11T16:49:36.066Z,52.15
2018-06-11T16:52:04.298Z,52.32
2018-06-11T16:54:32.458Z,52.30
2018-06-11T16:57:00.614Z,52.45
2018-06-11T16:59:28.805Z,51.98
2018-06-11T17:01:56.963Z,52.15
2018-06-11T17:04:25.115Z,52.85
2018-06-11T17:06:53.307Z,53.19
2018-06-11T17:09:21.472Z,52.98
2018-06-11T17:11:49.626Z,53.84
2018-06-11T17:14:17.795Z,53.41
2018-06-11T17:16:45.946Z,53.14
2018-06-11T17:19:14.122Z,54.98
2018-06-11T17:21:42.333Z,53.91
2018-06-11T17:24:10.481Z,55.76
2018-06-11T17:26:38.634Z,55.77
2018-06-11T17:29:06.789Z,56.10
2018-06-11T17:31:34.946Z,56.40
2018-06-11T17:34:03.106Z,55.88
2018-06-11T17:36:31.266Z,56.57
2018-06-11T17:38:59.430Z,56.33
2018-06-11T17:41:27.634Z,57.13
2018-06-11T17:43:55.850Z,56.37
2018-06-11T17:46:24.006Z,56.89
2018-06-11T17:48:52.194Z,57.43
2018-06-11T17:51:20.449Z,56.70
2018-06-11T17:53:48.554Z,56.83
2018-06-11T17:56:16.707Z,56.65
2018-06-11T17:58:44.909Z,57.17
2018-06-11T18:01:13.079Z,58.08
2018-06-11T18:03:41.236Z,56.97
2018-06-11T18:06:09.442Z,56.77
2018-06-11T18:08:37.583Z,57.68
2018-06-11T18:11:05.771Z,57.34
2018-06-11T18:13:33.986Z,57.60
2018-06-11T18:16:02.199Z,57.40
2018-06-11T18:18:30.602Z,57.77
2018-06-11T18:20:58.807Z,56.89
2018-06-11T18:23:27.066Z,57.83
2018-06-11T18:25:55.251Z,57.53
2018-06-11T18:28:23.410Z,57.38
2018-06-11T18:30:51.838Z,57.35
2018-06-11T18:33:20.058Z,57.80
2018-06-11T18:35:48.545Z,58.74
2018-06-11T18:38:16.734Z,57.81
2018-06-11T18:40:45.626Z,58.13
2018-06-11T18:43:14.634Z,59.05
2018-06-11T18:45:44.447Z,59.01
2018-06-11T18:48:12.762Z,59.30
2018-06-11T18:50:41.899Z,59.67
2018-06-11T18:53:10.577Z,59.26
2018-06-11T18:55:38.743Z,60.13
2018-06-11T18:58:06.971Z,59.51
2018-06-11T19:00:35.193Z,60.04
2018-06-11T19:03:03.613Z,59.58
2018-06-11T19:05:31.906Z,59.58
2018-06-11T19:08:00.080Z,60.39
2018-06-11T19:10:28.256Z,60.84
2018-06-11T19:12:56.410Z,60.49
2018-06-11T19:15:24.599Z,62.05
2018-06-11T19:17:52.802Z,62.09
2018-06-11T19:20:20.954Z,61.14
2018-06-11T19:22:49.122Z,60.88
2018-06-11T19:25:17.278Z,61.82
2018-06-11T19:27:45.442Z,61.62
2018-06-11T19:30:13.650Z,61.36
2018-06-11T19:32:41.874Z,61.10
2018-06-11T19:35:10.064Z,62.30
2018-06-11T19:37:38.182Z,62.32
2018-06-11T19:40:07.206Z,63.26
2018-06-11T19:42:35.366Z,63.73
2018-06-11T19:45:03.554Z,63.69
2018-06-11T19:47:31.718Z,64.26
2018-06-11T19:49:59.945Z,64.62
2018-06-11T19:52:28.039Z,65.03
2018-06-11T19:54:56.206Z,64.56
2018-06-11T19:57:24.366Z,64.80
2018-06-11T19:59:52.540Z,65.49
2018-06-11T20:02:20.691Z,66.38
2018-06-11T20:04:48.922Z,66.07
2018-06-11T20:07:17.090Z,67.19
2018-06-11T20:09:45.251Z,68.29
2018-06-11T20:12:13.425Z,68.80
2018-06-11T20:14:41.562Z,68.89
2018-06-11T20:17:09.743Z,68.61
2018-06-11T20:19:37.910Z,69.71
2018-06-11T20:22:06.104Z,70.12
2018-06-11T20:24:34.263Z,70.39
2018-06-11T20:27:02.438Z,71.25
2018-06-11T20:29:30.602Z,71.68
2018-06-11T20:31:58.774Z,70.89
2018-06-11T20:34:26.934Z,70.25
2018-06-11T20:36:55.094Z,70.36
2018-06-11T20:39:23.546Z,70.40
2018-06-11T20:41:51.705Z,70.09
2018-06-11T20:44:19.870Z,70.01
2018-06-11T20:46:48.039Z,70.63
2018-06-11T20:49:16.202Z,70.77
2018-06-11T20:51:44.381Z,70.62
2018-06-11T20:54:12.542Z,70.10
2018-06-11T20:56:40.715Z,70.25
2018-06-11T20:59:08.874Z,69.66
2018-06-11T21:01:37.046Z,70.52
2018-06-11T21:04:05.202Z,71.09
2018-06-11T21:06:33.374Z,70.25
2018-06-11T21:09:01.621Z,70.40
2018-06-11T21:11:29.774Z,70.72
2018-06-11T21:13:57.944Z,69.91
2018-06-11T21:16:26.108Z,70.37
2018-06-11T21:18:54.282Z,69.76
2018-06-11T21:21:22.442Z,69.75
2018-06-11T21:23:50.597Z,69.72
2018-06-11T21:26:18.738Z,68.91
2018-06-11T21:28:46.938Z,69.62
2018-06-11T21:31:15.086Z,68.72
2018-06-11T21:33:43.249Z,69.76
2018-06-11T21:36:11.394Z,68.69
2018-06-11T21:38:39.547Z,69.88
2018-06-11T21:41:07.718Z,69.62
2018-06-11T21:43:35.879Z,70.12
2018-06-11T21:46:04.046Z,70.26
2018-06-11T21:48:32.201Z,69.49
2018-06-11T21:51:00.346Z,70.32
2018-06-11T21:53:28.513Z,69.59
2018-06-11T21:55:56.651Z,69.99
2018-06-11T21:58:24.810Z,69.92
2018-06-11T22:00:52.970Z,69.29
2018-06-11T22:03:21.187Z,68.86
2018-06-11T22:05:49.303Z,69.12
2018-06-11T22:08:17.466Z,68.86
2018-06-11T22:10:45.632Z,68.96
2018-06-11T22:13:13.792Z,69.48
2018-06-11T22:15:41.994Z,69.60
2018-06-11T22:18:10.175Z,70.10
2018-06-11T22:20:38.342Z,69.78
2018-06-11T22:23:06.495Z,68.81
2018-06-11T22:25:34.670Z,70.20
2018-06-11T22:28:03.014Z,69.48
2018-06-11T22:30:31.191Z,69.72
2018-06-11T22:32:59.334Z,70.20
2018-06-11T22:35:27.494Z,70.68
2018-06-11T22:37:55.670Z,72.67
2018-06-11T22:40:23.825Z,70.83
2018-06-11T22:42:51.978Z,72.29
2018-06-11T22:45:20.131Z,72.71
2018-06-11T22:47:48.289Z,73.84
2018-06-11T22:50:16.438Z,75.30
2018-06-11T22:52:44.592Z,75.95
2018-06-11T22:55:12.750Z,75.53
2018-06-11T22:57:40.898Z,74.44
2018-06-11T23:00:09.096Z,75.86
2018-06-11T23:02:37.258Z,74.70
2018-06-11T23:05:05.415Z,74.30
2018-06-11T23:07:33.582Z,73.86
2018-06-11T23:10:01.771Z,73.84
2018-06-11T23:12:29.929Z,74.02
2018-06-11T23:14:58.078Z,73.84
2018-06-11T23:17:26.234Z,73.24
2018-06-11T23:19:54.382Z,74.62
2018-06-11T23:22:22.842Z,74.54
2018-06-11T23:24:50.994Z,74.03
2018-06-11T23:27:19.170Z,73.70
2018-06-11T23:29:47.316Z,73.76
2018-06-11T23:32:15.466Z,73.68
2018-06-11T23:34:43.609Z,73.53
2018-06-11T23:37:11.799Z,73.90
2018-06-11T23:39:39.954Z,74.49
2018-06-11T23:42:08.102Z,74.84
2018-06-11T23:44:36.270Z,74.08
2018-06-11T23:47:04.602Z,73.79
2018-06-11T23:49:32.766Z,74.27
2018-06-11T23:52:00.906Z,74.01
2018-06-11T23:54:29.066Z,73.37
2018-06-11T23:56:57.222Z,74.15
2018-06-11T23:59:25.414Z,73.70
